Time;durP1;ratioP1;P1;durP2;ratioP2;P2;SDS_P1;SDS_P2;PMS_P1;PMS_P2;Temp;Humidity;BMP_temperature;BMP_pressure;BME280_temperature;BME280_humidity;BME280_pressure;Samples;Min_cycle;Max_cycle;Signal;HPM_P1;HPM_P2
2023/08/05 00:01:54;;;;;;;8.33;7.50;;;20.00;77.00;;;;;;5022948;28;20523;-84
2023/08/05 00:04:23;;;;;;;7.97;7.37;;;19.80;77.80;;;;;;5036413;28;20459;-84
2023/08/05 00:06:53;;;;;;;9.57;7.00;;;19.70;78.40;;;;;;5045344;28;20455;-80
2023/08/05 00:09:20;;;;;;;6.83;6.23;;;19.60;78.70;;;;;;5040035;28;20444;-85
2023/08/05 00:11:50;;;;;;;9.17;8.37;;;19.60;79.10;;;;;;5040790;28;20477;-86
2023/08/05 00:14:34;;;;;;;8.00;7.23;;;19.60;79.60;;;;;;5020302;28;20473;-82
2023/08/05 00:17:01;;;;;;;7.80;7.10;;;19.50;79.70;;;;;;5015107;28;20493;-87
2023/08/05 00:19:32;;;;;;;8.20;7.40;;;19.50;79.80;;;;;;5035560;28;20476;-90
2023/08/05 00:22:04;;;;;;;7.40;6.70;;;19.40;79.80;;;;;;5031033;28;20682;-87
2023/08/05 00:24:36;;;;;;;7.20;6.60;;;19.50;79.90;;;;;;5031526;28;20420;-82
2023/08/05 00:27:03;;;;;;;15.70;7.50;;;19.40;79.80;;;;;;5035142;28;20638;-84
2023/08/05 00:29:31;;;;;;;9.00;8.10;;;19.40;80.20;;;;;;5021199;28;20471;-84
2023/08/05 00:31:58;;;;;;;9.00;8.30;;;19.40;79.50;;;;;;5035094;28;20484;-86
2023/08/05 00:34:25;;;;;;;8.50;7.80;;;19.40;80.10;;;;;;5033636;28;20822;-81
2023/08/05 00:36:52;;;;;;;7.83;7.13;;;19.30;80.20;;;;;;5028925;28;20433;-84
2023/08/05 00:39:19;;;;;;;11.10;7.50;;;19.30;80.60;;;;;;5039807;28;20454;-84
2023/08/05 00:41:49;;;;;;;7.23;6.63;;;19.20;80.80;;;;;;5015464;28;20416;-83
2023/08/05 00:44:16;;;;;;;11.20;7.20;;;19.20;81.00;;;;;;5037853;28;20438;-85
2023/08/05 00:46:44;;;;;;;8.03;7.33;;;19.20;81.10;;;;;;5043092;28;20427;-85
2023/08/05 00:49:18;;;;;;;8.10;7.43;;;19.10;81.20;;;;;;5024513;28;20439;-86
2023/08/05 00:51:46;;;;;;;7.40;6.80;;;19.20;81.20;;;;;;5008545;28;20401;-86
2023/08/05 00:54:17;;;;;;;8.70;8.00;;;19.10;81.20;;;;;;5035605;28;20614;-82
2023/08/05 00:56:49;;;;;;;7.77;6.80;;;19.20;81.00;;;;;;5025190;28;20417;-86
2023/08/05 00:59:21;;;;;;;8.53;7.57;;;19.20;80.80;;;;;;5024553;28;20525;-86
2023/08/05 01:01:50;;;;;;;9.10;7.20;;;19.20;81.00;;;;;;5022484;28;20446;-87
2023/08/05 01:04:18;;;;;;;8.17;7.57;;;19.20;80.70;;;;;;5035970;28;20785;-87
2023/08/05 01:06:47;;;;;;;8.50;7.80;;;19.30;81.10;;;;;;5030137;28;20497;-79
2023/08/05 01:09:14;;;;;;;13.80;8.27;;;19.00;80.70;;;;;;5032726;28;20445;-84
2023/08/05 01:11:41;;;;;;;8.87;8.03;;;19.30;79.90;;;;;;5031207;28;20441;-81
2023/08/05 01:14:09;;;;;;;9.23;8.27;;;19.30;79.70;;;;;;5039900;28;20515;-88
2023/08/05 01:16:36;;;;;;;8.60;6.40;;;19.30;79.90;;;;;;5034335;28;20475;-86
2023/08/05 01:19:09;;;;;;;7.53;6.63;;;19.20;79.80;;;;;;5038620;28;20504;-84
2023/08/05 01:22:04;;;;;;;8.20;7.60;;;19.20;80.40;;;;;;5019532;28;20753;-84
2023/08/05 01:24:38;;;;;;;8.50;6.90;;;19.30;80.10;;;;;;5008218;28;21029;-86
2023/08/05 01:27:07;;;;;;;8.00;7.20;;;19.30;80.20;;;;;;5045077;28;20444;-83
2023/08/05 01:29:35;;;;;;;9.40;7.60;;;19.20;80.10;;;;;;5032540;28;20416;-87
2023/08/05 01:32:05;;;;;;;8.80;7.10;;;19.30;79.90;;;;;;5047611;28;20447;-83
2023/08/05 01:34:33;;;;;;;8.33;7.10;;;19.20;80.20;;;;;;5042237;28;20533;-83
2023/08/05 01:37:02;;;;;;;7.70;7.07;;;19.20;80.30;;;;;;5031990;28;20421;-86
2023/08/05 01:39:32;;;;;;;11.40;6.90;;;19.20;80.30;;;;;;5010992;28;20434;-87
2023/08/05 01:41:59;;;;;;;9.23;7.10;;;19.10;80.50;;;;;;5030897;28;20423;-84
2023/08/05 01:44:28;;;;;;;9.13;7.13;;;19.00;80.50;;;;;;5013396;28;20478;-86
2023/08/05 01:46:55;;;;;;;6.80;6.30;;;19.10;80.20;;;;;;5039194;28;20629;-84
2023/08/05 01:49:22;;;;;;;12.53;6.97;;;19.30;80.40;;;;;;5038975;28;20495;-84
2023/08/05 01:51:50;;;;;;;7.90;7.17;;;19.20;80.60;;;;;;5039543;28;20582;-82
2023/08/05 01:54:18;;;;;;;9.27;6.33;;;18.90;80.30;;;;;;5034470;28;20461;-84
2023/08/05 01:56:45;;;;;;;9.23;7.63;;;19.10;79.80;;;;;;5043134;28;20729;-86
2023/08/05 01:59:13;;;;;;;6.43;5.93;;;19.00;80.30;;;;;;5040309;28;20527;-85
2023/08/05 02:01:42;;;;;;;10.00;5.97;;;19.00;80.00;;;;;;5018205;28;20480;-82
2023/08/05 02:04:11;;;;;;;6.77;6.27;;;19.10;80.00;;;;;;5009556;28;20789;-83
2023/08/05 02:06:42;;;;;;;8.43;7.17;;;19.00;80.20;;;;;;5040119;28;20446;-84
2023/08/05 02:09:09;;;;;;;7.50;6.80;;;19.00;80.10;;;;;;5022653;28;20676;-80
2023/08/05 02:11:44;;;;;;;8.00;7.20;;;19.00;80.00;;;;;;5025302;28;20448;-78
2023/08/05 02:14:10;;;;;;;9.03;7.37;;;19.00;80.00;;;;;;5054285;28;20480;-85
2023/08/05 02:16:39;;;;;;;7.87;6.80;;;19.00;80.10;;;;;;5055199;28;20455;-86
2023/08/05 02:19:06;;;;;;;7.83;6.93;;;18.90;79.90;;;;;;5045737;28;20473;-85
2023/08/05 02:21:38;;;;;;;7.00;6.30;;;19.00;80.30;;;;;;5038631;28;20513;-82
2023/08/05 02:24:09;;;;;;;7.60;6.93;;;19.00;80.20;;;;;;5032155;28;20496;-83
2023/08/05 02:26:37;;;;;;;7.40;6.83;;;19.00;80.10;;;;;;5037417;28;20438;-80
2023/08/05 02:29:04;;;;;;;7.80;7.10;;;19.20;79.70;;;;;;5043364;28;20437;-80
2023/08/05 02:31:31;;;;;;;7.23;6.63;;;19.00;79.80;;;;;;5033886;28;20420;-84
2023/08/05 02:33:58;;;;;;;7.63;6.87;;;19.00;79.80;;;;;;5036532;28;20652;-86
2023/08/05 02:36:25;;;;;;;8.43;7.13;;;19.00;79.80;;;;;;5029712;28;20492;-80
2023/08/05 02:38:52;;;;;;;8.50;6.37;;;19.10;79.90;;;;;;5023938;28;20501;-82
2023/08/05 02:41:19;;;;;;;8.63;7.83;;;19.10;80.10;;;;;;5030808;28;20505;-83
2023/08/05 02:43:46;;;;;;;9.67;7.03;;;19.10;80.20;;;;;;5044400;28;20552;-81
2023/08/05 02:46:13;;;;;;;9.17;6.80;;;19.10;80.10;;;;;;5037010;28;20431;-83
2023/08/05 02:48:44;;;;;;;8.10;7.30;;;19.20;80.50;;;;;;5042996;28;20450;-80
2023/08/05 02:51:12;;;;;;;8.33;7.53;;;19.00;80.50;;;;;;5028455;28;20435;-84
2023/08/05 02:53:39;;;;;;;7.77;6.83;;;18.90;80.70;;;;;;5044474;28;20542;-85
2023/08/05 02:56:09;;;;;;;9.00;8.10;;;18.90;81.20;;;;;;5040540;28;20439;-84
2023/08/05 02:58:36;;;;;;;10.90;7.13;;;18.90;80.70;;;;;;5032012;28;20420;-84
2023/08/05 03:01:07;;;;;;;7.70;6.93;;;18.90;80.90;;;;;;5043456;28;20488;-88
2023/08/05 03:03:35;;;;;;;9.33;7.03;;;18.90;80.90;;;;;;5024840;28;20455;-88
2023/08/05 03:06:03;;;;;;;8.27;7.57;;;18.80;81.10;;;;;;5030829;28;20413;-87
2023/08/05 03:08:30;;;;;;;8.63;8.03;;;18.80;81.00;;;;;;5052972;28;20783;-87
2023/08/05 03:11:00;;;;;;;8.60;7.80;;;18.70;81.10;;;;;;5159254;23;20486;-82
2023/08/05 03:13:27;;;;;;;7.27;6.70;;;18.80;81.00;;;;;;5026252;28;20452;-86
2023/08/05 03:15:55;;;;;;;8.80;7.60;;;18.60;81.00;;;;;;5022392;28;20457;-89
2023/08/05 03:18:22;;;;;;;8.53;7.30;;;18.60;81.30;;;;;;5024975;28;20430;-83
2023/08/05 03:20:49;;;;;;;8.13;7.53;;;18.70;81.70;;;;;;5023927;28;20448;-80
2023/08/05 03:23:18;;;;;;;9.47;7.30;;;18.70;81.80;;;;;;5021508;28;20447;-83
2023/08/05 03:25:46;;;;;;;8.53;7.63;;;18.70;81.50;;;;;;5003039;28;20486;-82
2023/08/05 03:28:14;;;;;;;8.50;7.80;;;18.70;81.80;;;;;;5004765;28;20435;-83
2023/08/05 03:30:42;;;;;;;8.63;7.73;;;18.80;81.50;;;;;;5022606;28;20702;-84
2023/08/05 03:33:10;;;;;;;7.30;6.80;;;18.70;81.70;;;;;;4991352;28;20441;-83
2023/08/05 03:35:44;;;;;;;8.60;6.63;;;18.70;83.10;;;;;;5001991;28;20533;-81
2023/08/05 03:38:13;;;;;;;9.63;8.80;;;18.70;82.30;;;;;;5010844;28;20402;-83
2023/08/05 03:40:40;;;;;;;8.83;8.07;;;18.60;82.10;;;;;;4997730;28;20443;-84
2023/08/05 03:43:12;;;;;;;8.90;8.03;;;18.60;82.30;;;;;;5018216;28;20504;-83
2023/08/05 03:45:50;;;;;;;8.67;7.97;;;18.60;82.30;;;;;;5001707;28;20523;-86
2023/08/05 03:48:17;;;;;;;10.93;8.90;;;18.70;81.80;;;;;;5006835;28;20435;-83
2023/08/05 03:50:50;;;;;;;8.80;8.00;;;18.70;82.00;;;;;;5021157;28;20649;-90
2023/08/05 03:53:17;;;;;;;9.03;8.30;;;18.50;82.10;;;;;;4991879;28;20590;-84
2023/08/05 03:55:46;;;;;;;15.10;8.70;;;18.60;82.40;;;;;;4989754;28;20658;-84
2023/08/05 03:58:14;;;;;;;8.20;7.50;;;18.70;82.80;;;;;;4988720;28;20483;-84
2023/08/05 04:00:43;;;;;;;8.27;7.00;;;18.50;83.50;;;;;;5012537;28;20649;-84
2023/08/05 04:03:18;;;;;;;9.37;7.20;;;18.50;83.90;;;;;;5022048;28;20401;-87
2023/08/05 04:05:46;;;;;;;8.77;7.43;;;18.50;85.00;;;;;;5005102;28;20438;-85
2023/08/05 04:08:18;;;;;;;7.40;6.77;;;18.50;85.20;;;;;;5017536;28;20485;-82
2023/08/05 04:10:45;;;;;;;10.93;7.50;;;18.50;86.10;;;;;;5006058;28;20421;-88
2023/08/05 04:13:16;;;;;;;10.63;8.90;;;18.40;86.10;;;;;;4996233;28;20417;-84
2023/08/05 04:15:46;;;;;;;10.73;7.47;;;18.50;86.60;;;;;;5001371;28;20598;-84
2023/08/05 04:18:13;;;;;;;9.53;8.63;;;18.40;86.40;;;;;;5015165;28;20439;-88
2023/08/05 04:20:46;;;;;;;10.30;8.47;;;18.40;87.10;;;;;;5011669;28;20432;-86
2023/08/05 04:23:16;;;;;;;17.00;8.70;;;18.30;88.80;;;;;;5008943;28;20423;-88
2023/08/05 04:25:45;;;;;;;9.37;8.57;;;18.50;88.50;;;;;;5017700;28;20422;-88
2023/08/05 04:28:15;;;;;;;9.53;8.73;;;18.30;87.50;;;;;;5017543;28;20512;-88
2023/08/05 04:30:42;;;;;;;8.73;8.00;;;18.30;88.20;;;;;;5028280;28;20421;-90
2023/08/05 04:33:11;;;;;;;10.50;7.80;;;18.20;89.30;;;;;;5017646;28;20413;-87
2023/08/05 04:35:47;;;;;;;8.97;8.07;;;18.20;90.40;;;;;;5012718;28;20473;-90
2023/08/05 04:38:20;;;;;;;11.47;9.17;;;18.20;90.30;;;;;;5025848;28;20429;-87
2023/08/05 04:40:59;;;;;;;9.53;8.40;;;18.20;89.20;;;;;;5020782;28;20719;-88
2023/08/05 04:43:27;;;;;;;13.57;9.87;;;18.10;90.70;;;;;;5014491;28;20429;-90
2023/08/05 04:45:58;;;;;;;10.50;8.90;;;18.10;91.00;;;;;;5026944;28;20452;-88
2023/08/05 04:48:25;;;;;;;10.60;8.77;;;18.10;90.80;;;;;;5019280;28;20443;-88
2023/08/05 04:50:54;;;;;;;10.83;9.83;;;18.10;90.80;;;;;;5015849;28;20443;-88
2023/08/05 04:53:21;;;;;;;9.83;9.03;;;18.10;90.70;;;;;;5031784;28;20439;-81
2023/08/05 04:55:50;;;;;;;10.77;9.67;;;18.10;90.90;;;;;;5025196;28;20486;-87
2023/08/05 04:58:17;;;;;;;10.80;9.80;;;18.20;90.90;;;;;;5005185;28;20589;-88
2023/08/05 05:00:46;;;;;;;12.97;11.30;;;18.10;91.20;;;;;;5015557;28;20444;-81
2023/08/05 05:03:15;;;;;;;11.53;10.33;;;18.10;90.30;;;;;;4984982;28;20467;-83
2023/08/05 05:05:45;;;;;;;13.37;10.47;;;18.30;91.00;;;;;;4996933;28;20639;-83
2023/08/05 05:08:11;;;;;;;11.60;10.43;;;18.10;90.80;;;;;;5014891;28;20746;-81
2023/08/05 05:10:46;;;;;;;14.23;13.03;;;18.10;91.00;;;;;;5009177;28;20453;-86
2023/08/05 05:13:13;;;;;;;13.47;10.90;;;18.10;90.70;;;;;;5010366;28;20439;-83
2023/08/05 05:15:41;;;;;;;13.03;11.73;;;18.10;90.60;;;;;;5009713;28;20499;-81
2023/08/05 05:18:08;;;;;;;12.30;10.90;;;18.10;90.30;;;;;;5010610;28;20435;-85
2023/08/05 05:20:35;;;;;;;12.30;11.20;;;18.10;90.50;;;;;;5005078;28;21021;-85
2023/08/05 05:23:02;;;;;;;13.77;12.23;;;18.10;90.80;;;;;;5012769;28;20447;-88
2023/08/05 05:25:30;;;;;;;17.63;12.40;;;18.30;90.30;;;;;;5017933;28;20459;-87
2023/08/05 05:28:00;;;;;;;12.90;11.47;;;18.40;90.50;;;;;;5010969;28;20521;-84
2023/08/05 05:30:27;;;;;;;13.40;11.73;;;18.30;90.20;;;;;;5019878;28;20493;-88
2023/08/05 05:32:53;;;;;;;13.57;12.27;;;18.30;90.10;;;;;;5014883;28;20474;-87
2023/08/05 05:35:24;;;;;;;12.30;11.10;;;18.40;90.00;;;;;;5133164;23;20461;-84
2023/08/05 05:37:54;;;;;;;12.30;11.30;;;18.40;88.90;;;;;;5295105;22;20492;-86
2023/08/05 05:40:21;;;;;;;12.47;11.17;;;18.40;89.90;;;;;;5018271;28;20511;-80
2023/08/05 05:42:49;;;;;;;14.60;11.27;;;18.50;88.20;;;;;;5227763;22;20684;-83
2023/08/05 05:45:16;;;;;;;11.03;10.03;;;18.50;87.00;;;;;;5021639;28;20450;-89
2023/08/05 05:47:44;;;;;;;11.50;10.40;;;18.50;87.50;;;;;;5026056;28;20493;-87
2023/08/05 05:50:12;;;;;;;11.73;9.93;;;18.70;87.10;;;;;;5017076;28;20453;-81
2023/08/05 05:52:39;;;;;;;10.60;9.63;;;18.70;85.90;;;;;;5031272;28;20558;-89
2023/08/05 05:55:07;;;;;;;10.30;8.30;;;18.80;84.20;;;;;;4998064;28;20574;-83
2023/08/05 05:57:36;;;;;;;10.87;9.73;;;18.90;83.20;;;;;;5014028;28;20442;-86
2023/08/05 06:00:04;;;;;;;11.13;9.73;;;18.90;83.50;;;;;;5023758;28;20438;-86
2023/08/05 06:02:31;;;;;;;10.13;9.33;;;18.90;84.10;;;;;;5030819;28;20409;-84
2023/08/05 06:05:01;;;;;;;10.83;8.97;;;18.80;84.00;;;;;;4998494;28;20448;-89
2023/08/05 06:07:28;;;;;;;10.13;8.33;;;18.90;83.10;;;;;;5035004;28;20465;-79
2023/08/05 06:09:55;;;;;;;9.60;8.60;;;18.90;83.30;;;;;;5021987;28;20451;-81
2023/08/05 06:12:24;;;;;;;10.30;9.20;;;18.90;82.80;;;;;;5029371;28;20483;-88
2023/08/05 06:14:51;;;;;;;9.53;8.63;;;18.90;83.20;;;;;;5023443;28;20472;-83
2023/08/05 06:17:21;;;;;;;10.57;9.73;;;18.90;84.00;;;;;;5017377;28;20448;-84
2023/08/05 06:19:48;;;;;;;11.40;8.50;;;18.90;83.00;;;;;;5021482;28;20434;-87
2023/08/05 06:22:15;;;;;;;10.30;9.20;;;19.00;82.80;;;;;;5022247;28;20511;-81
2023/08/05 06:24:42;;;;;;;9.70;8.70;;;19.00;82.80;;;;;;5017271;28;20417;-86
2023/08/05 06:27:09;;;;;;;10.07;8.80;;;18.90;83.10;;;;;;5034630;28;20448;-77
2023/08/05 06:29:41;;;;;;;9.37;8.50;;;18.90;83.10;;;;;;5022386;28;20413;-88
2023/08/05 06:32:08;;;;;;;9.47;8.10;;;18.90;84.20;;;;;;5022625;28;20502;-84
2023/08/05 06:34:36;;;;;;;9.63;8.60;;;18.90;84.10;;;;;;5030926;28;20460;-87
2023/08/05 06:37:04;;;;;;;8.97;8.07;;;18.90;83.50;;;;;;5025602;28;20496;-81
2023/08/05 06:39:33;;;;;;;9.90;8.67;;;18.90;82.20;;;;;;5022548;28;20496;-81
2023/08/05 06:42:01;;;;;;;10.43;8.00;;;19.00;82.10;;;;;;5028526;28;20481;-82
2023/08/05 06:44:28;;;;;;;9.10;8.10;;;19.00;82.10;;;;;;5039225;28;20488;-80
2023/08/05 06:46:57;;;;;;;11.90;9.40;;;19.00;82.40;;;;;;5025291;28;21057;-87
2023/08/05 06:49:27;;;;;;;9.50;8.50;;;18.80;87.10;;;;;;5031980;28;20637;-86
2023/08/05 06:51:56;;;;;;;11.27;9.47;;;18.60;89.10;;;;;;5029890;28;20423;-87
2023/08/05 06:54:26;;;;;;;10.00;9.10;;;18.20;90.90;;;;;;5026592;28;20457;-87
2023/08/05 06:56:53;;;;;;;11.43;9.87;;;18.00;91.40;;;;;;5018350;28;20437;-80
2023/08/05 06:59:23;;;;;;;10.60;9.60;;;17.90;90.60;;;;;;5027655;28;20480;-82
2023/08/05 07:01:50;;;;;;;13.40;10.80;;;17.90;90.80;;;;;;5027963;28;20431;-80
2023/08/05 07:04:18;;;;;;;11.10;10.10;;;17.80;90.30;;;;;;5032910;28;20451;-79
2023/08/05 07:06:46;;;;;;;10.20;9.30;;;17.80;90.80;;;;;;5038046;28;20432;-81
2023/08/05 07:09:16;;;;;;;10.73;9.73;;;18.00;90.70;;;;;;5032434;28;20409;-87
2023/08/05 07:11:45;;;;;;;11.33;10.40;;;17.80;91.70;;;;;;5031434;28;20442;-87
2023/08/05 07:14:12;;;;;;;10.73;9.23;;;17.90;91.30;;;;;;5040508;28;20607;-79
2023/08/05 07:16:39;;;;;;;9.93;9.03;;;18.00;91.10;;;;;;5024046;28;20532;-89
2023/08/05 07:19:09;;;;;;;10.57;9.20;;;18.10;90.20;;;;;;5027159;28;20437;-86
2023/08/05 07:21:37;;;;;;;9.73;8.83;;;18.20;90.30;;;;;;5030816;28;20415;-88
2023/08/05 07:24:04;;;;;;;9.97;9.00;;;18.20;89.50;;;;;;5027446;28;20480;-83
2023/08/05 07:26:32;;;;;;;11.43;10.53;;;18.20;89.70;;;;;;5014819;28;20834;-87
2023/08/05 07:29:02;;;;;;;12.50;11.27;;;18.50;90.00;;;;;;5028942;28;20447;-82
2023/08/05 07:31:31;;;;;;;15.40;13.80;;;18.50;89.80;;;;;;5018581;28;20525;-78
2023/08/05 07:33:58;;;;;;;16.10;14.77;;;18.40;90.00;;;;;;5006704;28;20432;-83
2023/08/05 07:36:27;;;;;;;16.07;14.60;;;18.50;90.30;;;;;;5032567;28;20429;-84
2023/08/05 07:38:54;;;;;;;14.53;13.13;;;18.50;90.80;;;;;;5025806;28;20449;-89
2023/08/05 07:41:26;;;;;;;15.27;13.83;;;18.50;90.90;;;;;;5047879;28;20412;-87
2023/08/05 07:43:58;;;;;;;13.20;12.10;;;18.60;90.70;;;;;;5027023;28;21078;-85
2023/08/05 07:46:25;;;;;;;11.97;10.73;;;18.80;91.30;;;;;;5028020;28;20412;-84
2023/08/05 07:48:55;;;;;;;12.50;11.20;;;18.80;91.00;;;;;;5032857;28;20744;-86
2023/08/05 07:51:23;;;;;;;13.23;11.80;;;18.90;90.90;;;;;;5021450;28;20507;-86
2023/08/05 07:53:52;;;;;;;13.20;12.10;;;18.90;90.40;;;;;;5025388;28;20447;-91
2023/08/05 07:56:20;;;;;;;12.17;11.17;;;18.90;91.30;;;;;;5003755;28;20498;-86
2023/08/05 07:58:51;;;;;;;10.70;9.67;;;18.90;91.60;;;;;;5035158;28;20447;-89
2023/08/05 08:01:22;;;;;;;11.23;10.43;;;18.90;90.50;;;;;;5030045;28;20447;-88
2023/08/05 08:03:53;;;;;;;11.13;10.10;;;18.90;90.60;;;;;;5040708;28;20406;-84
2023/08/05 08:06:23;;;;;;;10.93;9.90;;;19.00;90.90;;;;;;5029951;28;20493;-84
2023/08/05 08:08:54;;;;;;;10.93;10.00;;;19.20;90.00;;;;;;4996079;28;20529;-86
2023/08/05 08:11:21;;;;;;;11.73;10.63;;;19.20;89.90;;;;;;5011797;28;20521;-85
2023/08/05 08:13:51;;;;;;;13.70;10.03;;;19.20;89.40;;;;;;5022956;28;20459;-88
2023/08/05 08:16:42;;;;;;;11.53;10.53;;;19.30;88.40;;;;;;5006971;28;20493;-85
2023/08/05 08:19:10;;;;;;;13.90;10.23;;;19.40;88.10;;;;;;5025396;28;20581;-85
2023/08/05 08:21:37;;;;;;;11.50;10.30;;;19.50;88.20;;;;;;5019142;28;20553;-83
2023/08/05 08:24:13;;;;;;;12.13;10.93;;;19.50;86.90;;;;;;5022816;28;20517;-87
2023/08/05 08:26:48;;;;;;;11.20;10.30;;;19.60;88.70;;;;;;5021136;28;21049;-86
2023/08/05 08:29:22;;;;;;;10.97;10.17;;;19.70;87.20;;;;;;5027742;28;20493;-83
2023/08/05 08:31:49;;;;;;;11.00;10.00;;;19.80;87.40;;;;;;5011275;28;20434;-80
2023/08/05 08:34:18;;;;;;;11.13;10.10;;;19.90;85.80;;;;;;5020742;28;20422;-80
2023/08/05 08:36:45;;;;;;;11.73;10.53;;;20.00;84.80;;;;;;5024450;28;20775;-85
2023/08/05 08:39:16;;;;;;;12.10;10.90;;;20.10;86.30;;;;;;5028203;28;20472;-80
2023/08/05 08:41:45;;;;;;;12.83;11.60;;;20.10;85.60;;;;;;5030664;28;20424;-82
2023/08/05 08:44:16;;;;;;;11.97;10.77;;;20.20;84.50;;;;;;5009830;28;20438;-83
2023/08/05 08:46:49;;;;;;;11.03;10.13;;;20.20;84.90;;;;;;5022951;28;20454;-84
2023/08/05 08:49:20;;;;;;;11.30;10.40;;;20.30;84.20;;;;;;5029558;28;20424;-84
2023/08/05 08:51:50;;;;;;;12.17;11.17;;;20.50;83.30;;;;;;5006745;28;20446;-86
2023/08/05 08:54:19;;;;;;;11.67;10.60;;;20.70;83.00;;;;;;5022585;28;20448;-83
2023/08/05 08:56:46;;;;;;;11.07;10.17;;;20.70;82.00;;;;;;5023627;28;20679;-87
2023/08/05 08:59:14;;;;;;;13.33;10.77;;;20.70;82.90;;;;;;5035817;28;20429;-86
2023/08/05 09:01:45;;;;;;;15.10;9.67;;;20.70;83.70;;;;;;5023162;28;20423;-85
2023/08/05 09:04:12;;;;;;;11.10;10.00;;;20.70;82.60;;;;;;5026019;28;20480;-84
2023/08/05 09:06:40;;;;;;;11.33;10.33;;;20.60;82.70;;;;;;5020229;28;20508;-81
2023/08/05 09:09:09;;;;;;;10.93;9.90;;;20.50;83.10;;;;;;5019902;28;20470;-77
2023/08/05 09:11:36;;;;;;;11.40;10.40;;;20.40;83.30;;;;;;5020791;28;20448;-80
2023/08/05 09:14:06;;;;;;;12.20;11.20;;;20.30;84.00;;;;;;5014921;28;20424;-83
2023/08/05 09:16:59;;;;;;;11.20;10.07;;;20.30;83.30;;;;;;5035566;28;20818;-78
2023/08/05 09:19:27;;;;;;;11.10;9.97;;;20.20;84.10;;;;;;5011018;28;20425;-85
2023/08/05 09:21:55;;;;;;;11.27;10.27;;;19.90;84.20;;;;;;5019992;28;20478;-84
2023/08/05 09:24:26;;;;;;;11.93;10.60;;;19.90;85.20;;;;;;5020265;28;20446;-89
2023/08/05 09:27:00;;;;;;;11.10;10.30;;;19.90;84.60;;;;;;5011333;28;20479;-84
2023/08/05 09:29:28;;;;;;;11.23;10.23;;;19.90;85.60;;;;;;5006643;28;20428;-84
2023/08/05 09:32:01;;;;;;;11.53;10.53;;;19.80;86.20;;;;;;5008862;28;20428;-85
2023/08/05 09:34:32;;;;;;;12.00;10.90;;;19.80;87.10;;;;;;5033805;28;20512;-82
2023/08/05 09:37:01;;;;;;;13.07;11.73;;;19.70;86.90;;;;;;5030681;28;20467;-85
2023/08/05 09:39:46;;;;;;;11.30;10.20;;;19.90;86.90;;;;;;5001521;28;20833;-86
2023/08/05 09:42:24;;;;;;;11.60;10.30;;;19.90;86.40;;;;;;5019504;28;20788;-83
2023/08/05 09:44:57;;;;;;;11.53;10.40;;;19.90;86.70;;;;;;5024685;28;20428;-84
2023/08/05 09:47:29;;;;;;;15.93;11.20;;;19.80;87.50;;;;;;5023231;28;20444;-86
2023/08/05 09:49:59;;;;;;;12.27;10.93;;;19.80;87.20;;;;;;5021872;28;20445;-86
2023/08/05 09:52:28;;;;;;;14.00;12.50;;;19.80;88.00;;;;;;5019090;28;20549;-86
2023/08/05 09:55:09;;;;;;;12.83;11.50;;;19.70;88.20;;;;;;5018747;28;20766;-87
2023/08/05 09:57:37;;;;;;;12.07;10.90;;;19.60;87.70;;;;;;5026211;28;20474;-82
2023/08/05 10:00:11;;;;;;;12.33;11.23;;;19.60;87.10;;;;;;5048897;28;20610;-86
2023/08/05 10:02:45;;;;;;;12.40;11.10;;;19.60;86.90;;;;;;5038158;28;20467;-83
2023/08/05 10:05:13;;;;;;;11.67;10.77;;;19.50;87.30;;;;;;5020926;28;20493;-88
2023/08/05 10:07:41;;;;;;;13.13;11.80;;;19.50;87.50;;;;;;5039553;28;20408;-87
2023/08/05 10:10:19;;;;;;;18.57;10.13;;;19.50;88.30;;;;;;5039649;28;20498;-89
2023/08/05 10:12:55;;;;;;;12.37;10.87;;;19.50;88.00;;;;;;5028085;28;20400;-90
2023/08/05 10:15:31;;;;;;;11.93;10.83;;;19.50;88.10;;;;;;5029107;28;20472;-82
2023/08/05 10:17:59;;;;;;;13.20;11.80;;;19.50;87.80;;;;;;5023879;28;20450;-82
2023/08/05 10:20:34;;;;;;;15.77;11.80;;;19.40;88.00;;;;;;5027911;28;20686;-86
2023/08/05 10:23:13;;;;;;;11.80;10.70;;;19.40;88.70;;;;;;5033211;28;20421;-86
2023/08/05 10:25:45;;;;;;;13.73;12.33;;;19.40;88.90;;;;;;5012612;28;20452;-87
2023/08/05 10:28:25;;;;;;;14.47;11.97;;;19.40;88.50;;;;;;5012656;28;20478;-85
2023/08/05 10:30:54;;;;;;;17.63;11.77;;;19.40;89.40;;;;;;5021850;28;20420;-87
2023/08/05 10:33:22;;;;;;;13.47;12.23;;;19.40;89.60;;;;;;5026039;28;20771;-79
2023/08/05 10:35:49;;;;;;;13.30;12.10;;;19.50;88.60;;;;;;5023799;28;20453;-86
2023/08/05 10:38:23;;;;;;;13.23;12.00;;;19.60;88.10;;;;;;5025729;28;20674;-80
2023/08/05 10:41:03;;;;;;;11.47;10.47;;;19.70;88.50;;;;;;5031631;28;20437;-80
2023/08/05 10:43:30;;;;;;;15.53;11.40;;;19.60;88.40;;;;;;5017700;28;20454;-84
2023/08/05 10:45:59;;;;;;;12.80;11.63;;;19.60;88.60;;;;;;5027814;28;20468;-85
2023/08/05 10:48:35;;;;;;;11.23;10.27;;;19.70;88.20;;;;;;5008064;28;20442;-85
2023/08/05 10:51:13;;;;;;;11.97;10.83;;;19.70;88.40;;;;;;5025419;28;20820;-84
2023/08/05 10:53:44;;;;;;;13.47;12.20;;;19.70;88.10;;;;;;5031209;28;20461;-87
2023/08/05 10:56:13;;;;;;;12.47;11.37;;;19.60;88.80;;;;;;5022434;28;20449;-85
2023/08/05 10:59:01;;;;;;;11.70;10.57;;;19.70;88.50;;;;;;5034360;28;20759;-85
2023/08/05 11:01:56;;;;;;;12.37;11.27;;;19.70;88.50;;;;;;5010346;28;20750;-83
2023/08/05 11:04:32;;;;;;;12.90;11.80;;;19.70;88.60;;;;;;5027043;28;20600;-85
2023/08/05 11:07:00;;;;;;;14.60;13.30;;;19.80;87.50;;;;;;5017072;28;20526;-84
2023/08/05 11:09:39;;;;;;;16.20;13.00;;;19.80;87.10;;;;;;5011021;28;20456;-81
2023/08/05 11:12:07;;;;;;;14.63;13.30;;;19.90;87.40;;;;;;5015215;28;20430;-88
2023/08/05 11:14:37;;;;;;;14.40;12.97;;;19.80;88.10;;;;;;5017737;28;20779;-81
2023/08/05 11:17:07;;;;;;;16.40;14.30;;;19.80;88.20;;;;;;5022264;28;20461;-85
2023/08/05 11:19:53;;;;;;;15.23;13.80;;;19.70;89.30;;;;;;5022839;28;20450;-85
2023/08/05 11:22:29;;;;;;;17.40;15.37;;;19.50;90.10;;;;;;5020322;28;20726;-83
2023/08/05 11:25:04;;;;;;;15.83;14.27;;;19.50;90.20;;;;;;5034531;28;20887;-85
2023/08/05 11:27:39;;;;;;;15.87;14.10;;;19.40;90.60;;;;;;5007825;28;20814;-85
2023/08/05 11:30:15;;;;;;;17.33;15.60;;;19.40;90.90;;;;;;5019277;28;20408;-84
2023/08/05 11:33:08;;;;;;;17.07;15.67;;;19.30;91.30;;;;;;5015526;28;20424;-79
2023/08/05 11:35:46;;;;;;;19.40;17.67;;;19.20;91.40;;;;;;5018159;28;20482;-85
2023/08/05 11:38:17;;;;;;;21.97;18.77;;;19.20;91.50;;;;;;5025733;28;20413;-85
2023/08/05 11:40:57;;;;;;;20.13;18.20;;;19.10;92.00;;;;;;5022927;28;20524;-78
2023/08/05 11:43:24;;;;;;;19.57;17.97;;;18.90;92.10;;;;;;5017125;28;20452;-85
2023/08/05 11:45:54;;;;;;;19.73;18.07;;;18.90;92.80;;;;;;5028085;28;20428;-80
2023/08/05 11:48:26;;;;;;;21.30;19.37;;;18.90;92.50;;;;;;5015725;28;20441;-88
2023/08/05 11:50:58;;;;;;;22.37;20.47;;;18.80;92.90;;;;;;5031371;28;20490;-78
2023/08/05 11:53:27;;;;;;;22.27;20.37;;;18.80;93.50;;;;;;5025051;28;20437;-83
2023/08/05 11:55:57;;;;;;;21.53;19.60;;;18.80;93.70;;;;;;5023338;28;20456;-85
2023/08/05 11:58:36;;;;;;;22.60;20.50;;;18.80;93.70;;;;;;5017964;28;20441;-84
2023/08/05 12:01:04;;;;;;;23.13;20.97;;;18.70;94.10;;;;;;5028984;28;21194;-81
2023/08/05 12:03:32;;;;;;;27.63;22.53;;;18.60;94.40;;;;;;5021743;28;20421;-82
2023/08/05 12:06:01;;;;;;;25.00;22.80;;;18.60;94.70;;;;;;5021173;28;20470;-79
2023/08/05 12:08:38;;;;;;;24.63;22.20;;;18.60;94.50;;;;;;5011113;28;20645;-82
2023/08/05 12:11:06;;;;;;;26.17;23.50;;;18.70;94.70;;;;;;5012255;28;20450;-86
2023/08/05 12:13:34;;;;;;;26.00;23.57;;;18.60;94.50;;;;;;5011245;28;20645;-82
2023/08/05 12:16:15;;;;;;;29.10;26.60;;;18.60;95.10;;;;;;5009362;28;20503;-84
2023/08/05 12:18:47;;;;;;;27.40;24.90;;;18.50;96.20;;;;;;5008297;28;20504;-82
2023/08/05 12:21:14;;;;;;;27.30;25.10;;;18.50;96.50;;;;;;5019787;28;20463;-83
2023/08/05 12:23:42;;;;;;;30.00;27.50;;;18.50;96.70;;;;;;5008883;28;20446;-81
2023/08/05 12:26:10;;;;;;;33.10;29.97;;;18.40;97.00;;;;;;5022107;28;20449;-80
2023/08/05 12:28:38;;;;;;;33.57;30.00;;;18.40;96.90;;;;;;5017022;28;20420;-81
2023/08/05 12:31:06;;;;;;;33.00;29.70;;;18.40;97.10;;;;;;5025917;28;20537;-85
2023/08/05 12:33:33;;;;;;;37.40;33.60;;;18.40;97.00;;;;;;5015624;28;20447;-83
2023/08/05 12:36:01;;;;;;;37.10;33.77;;;18.20;97.50;;;;;;5020056;28;20518;-85
2023/08/05 12:38:31;;;;;;;35.97;32.67;;;18.20;98.50;;;;;;5020756;28;20484;-82
2023/08/05 12:40:58;;;;;;;36.00;32.70;;;18.10;98.00;;;;;;5020662;28;20446;-77
2023/08/05 12:43:25;;;;;;;38.47;34.97;;;18.10;98.50;;;;;;4986707;28;1032212;-87
2023/08/05 12:45:53;;;;;;;37.80;34.23;;;18.20;98.40;;;;;;5013862;28;20263;-78
2023/08/05 12:48:22;;;;;;;38.17;34.13;;;18.00;98.70;;;;;;5015872;28;20447;-81
2023/08/05 12:50:52;;;;;;;42.00;37.77;;;18.00;98.50;;;;;;5015577;28;20934;-85